Time;durP1;ratioP1;P1;durP2;ratioP2;P2;SDS_P1;SDS_P2;PMS_P1;PMS_P2;Temp;Humidity;BMP_temperature;BMP_pressure;BME280_temperature;BME280_humidity;BME280_pressure;Samples;Min_cycle;Max_cycle;Signal;HPM_P1;HPM_P2
2023/04/30 00:00:07;;;;;;;9.50;2.50;;;6.10;99.90;;;;;;5047113;28;20203;-63
2023/04/30 00:02:34;;;;;;;7.57;2.30;;;6.10;99.90;;;;;;5059055;28;20753;-63
2023/04/30 00:05:01;;;;;;;7.87;2.47;;;6.00;99.90;;;;;;5046175;28;20211;-63
2023/04/30 00:07:27;;;;;;;3.67;2.00;;;6.10;99.90;;;;;;5065523;28;20201;-63
2023/04/30 00:09:55;;;;;;;8.87;2.70;;;6.00;99.90;;;;;;5038599;28;20566;-63
2023/04/30 00:12:22;;;;;;;5.47;2.03;;;6.00;99.90;;;;;;5049169;28;20215;-63
2023/04/30 00:14:50;;;;;;;4.80;2.00;;;6.00;99.90;;;;;;5019243;28;20208;-63
2023/04/30 00:17:16;;;;;;;4.30;2.07;;;6.00;99.90;;;;;;5058459;28;20936;-63
2023/04/30 00:19:43;;;;;;;5.43;2.30;;;6.10;99.90;;;;;;5044654;28;20209;-63
2023/04/30 00:22:10;;;;;;;7.20;2.37;;;6.10;99.90;;;;;;5058537;28;20708;-63
2023/04/30 00:24:37;;;;;;;9.23;2.23;;;6.00;99.90;;;;;;5054155;28;20200;-63
2023/04/30 00:27:05;;;;;;;9.23;2.13;;;5.90;99.90;;;;;;5045995;28;20231;-63
2023/04/30 00:29:32;;;;;;;6.17;2.10;;;5.90;99.90;;;;;;5030211;28;20235;-63
2023/04/30 00:31:58;;;;;;;5.93;2.23;;;5.90;99.90;;;;;;5061275;28;20204;-63
2023/04/30 00:34:25;;;;;;;7.00;2.13;;;5.80;99.90;;;;;;5045809;28;20411;-63
2023/04/30 00:36:52;;;;;;;10.20;2.47;;;5.80;99.90;;;;;;5066073;28;20210;-63
2023/04/30 00:39:19;;;;;;;5.17;2.03;;;5.90;99.90;;;;;;5043723;28;20204;-63
2023/04/30 00:41:46;;;;;;;8.93;2.37;;;5.80;99.90;;;;;;5046362;28;20227;-63
2023/04/30 00:44:14;;;;;;;5.97;2.40;;;5.90;99.90;;;;;;5031705;28;20214;-63
2023/04/30 00:46:41;;;;;;;4.63;1.97;;;5.80;99.90;;;;;;5063911;28;20247;-63
2023/04/30 00:49:08;;;;;;;8.13;2.50;;;5.70;99.90;;;;;;5061460;28;20226;-63
2023/04/30 00:51:35;;;;;;;7.53;1.90;;;5.70;99.90;;;;;;5047133;28;20781;-63
2023/04/30 00:54:03;;;;;;;6.80;1.87;;;5.60;99.90;;;;;;5050363;28;20200;-63
2023/04/30 00:56:31;;;;;;;4.90;2.13;;;5.50;99.90;;;;;;5044945;28;20513;-63
2023/04/30 00:58:58;;;;;;;3.90;1.53;;;5.40;99.90;;;;;;5065500;28;20227;-63
2023/04/30 01:01:27;;;;;;;7.93;2.20;;;5.30;99.90;;;;;;5027443;28;20667;-63
2023/04/30 01:03:55;;;;;;;7.00;2.17;;;5.30;99.90;;;;;;5060435;28;21236;-63
2023/04/30 01:06:21;;;;;;;3.10;2.00;;;5.20;99.90;;;;;;5046513;28;20512;-63
2023/04/30 01:08:49;;;;;;;3.20;2.03;;;5.20;99.90;;;;;;5044138;28;20737;-63
2023/04/30 01:11:26;;;;;;;7.97;2.83;;;5.20;99.90;;;;;;5050722;28;20551;-63
2023/04/30 01:14:07;;;;;;;7.30;2.30;;;5.20;99.90;;;;;;5048152;28;20596;-63
2023/04/30 01:16:40;;;;;;;9.47;1.97;;;5.30;99.90;;;;;;5028078;28;20234;-63
2023/04/30 01:19:17;;;;;;;7.10;2.20;;;5.30;99.90;;;;;;5050542;28;20211;-63
2023/04/30 01:21:45;;;;;;;7.13;2.10;;;5.20;99.90;;;;;;5045017;28;20204;-63
2023/04/30 01:24:43;;;;;;;4.60;2.00;;;5.10;99.90;;;;;;5050009;28;20692;-63
2023/04/30 01:27:23;;;;;;;7.10;2.20;;;5.10;99.90;;;;;;5046442;28;20224;-63
2023/04/30 01:29:54;;;;;;;5.20;2.17;;;5.20;99.90;;;;;;5055705;28;20498;-63
2023/04/30 01:32:21;;;;;;;3.33;2.40;;;5.10;99.90;;;;;;5030132;28;21525;-63
2023/04/30 01:34:48;;;;;;;8.87;2.20;;;5.10;99.90;;;;;;5045033;28;20767;-63
2023/04/30 01:37:22;;;;;;;3.83;2.27;;;5.00;99.90;;;;;;5047913;28;20208;-63
2023/04/30 01:40:03;;;;;;;5.97;2.13;;;5.00;99.90;;;;;;5043867;28;20697;-63
2023/04/30 01:42:35;;;;;;;5.47;2.17;;;4.90;99.90;;;;;;5057961;28;20203;-63
2023/04/30 01:45:32;;;;;;;9.07;2.67;;;4.90;99.90;;;;;;5054709;28;20669;-63
2023/04/30 01:48:08;;;;;;;5.80;2.20;;;4.90;99.90;;;;;;5038481;28;20205;-63
2023/04/30 01:50:42;;;;;;;2.97;2.23;;;4.80;99.90;;;;;;5054295;28;20239;-63
2023/04/30 01:53:13;;;;;;;7.50;2.70;;;4.80;99.90;;;;;;5050169;28;20306;-63
2023/04/30 01:55:43;;;;;;;5.17;2.10;;;4.80;99.90;;;;;;5053611;28;20208;-63
2023/04/30 01:58:12;;;;;;;5.73;2.60;;;4.80;99.90;;;;;;5062568;28;20204;-63
2023/04/30 02:00:41;;;;;;;6.73;2.47;;;4.90;99.90;;;;;;5047142;28;20207;-63
2023/04/30 02:03:08;;;;;;;10.00;2.83;;;4.90;99.90;;;;;;5028656;28;20289;-63
2023/04/30 02:05:35;;;;;;;3.97;2.20;;;4.90;99.90;;;;;;5057724;28;20287;-63
2023/04/30 02:08:02;;;;;;;4.87;2.33;;;4.90;99.90;;;;;;5051287;28;20279;-63
2023/04/30 02:10:29;;;;;;;7.97;2.67;;;4.80;99.90;;;;;;5052175;28;20225;-63
2023/04/30 02:12:56;;;;;;;5.33;2.63;;;4.90;99.90;;;;;;5058924;28;20851;-63
2023/04/30 02:15:23;;;;;;;3.80;2.70;;;4.90;99.90;;;;;;5045274;28;20238;-63
2023/04/30 02:17:51;;;;;;;4.20;1.90;;;4.90;99.90;;;;;;5026265;28;20669;-63
2023/04/30 02:20:18;;;;;;;4.80;2.23;;;4.90;99.90;;;;;;5058543;28;20192;-63
2023/04/30 02:22:45;;;;;;;3.83;1.80;;;4.80;99.90;;;;;;5038474;28;20227;-63
2023/04/30 02:25:12;;;;;;;7.13;1.93;;;4.80;99.90;;;;;;5043301;28;20588;-63
2023/04/30 02:27:40;;;;;;;3.93;2.20;;;4.80;99.90;;;;;;5061993;28;20285;-63
2023/04/30 02:30:07;;;;;;;7.20;2.50;;;4.80;99.90;;;;;;5043452;28;21166;-63
2023/04/30 02:32:34;;;;;;;7.33;2.00;;;4.70;99.90;;;;;;5061872;28;20762;-63
2023/04/30 02:35:02;;;;;;;2.50;1.93;;;4.70;99.90;;;;;;5023853;28;20209;-63
2023/04/30 02:37:29;;;;;;;2.60;2.07;;;4.70;99.90;;;;;;5045890;28;20499;-63
2023/04/30 02:39:57;;;;;;;4.63;2.03;;;4.50;99.90;;;;;;5045146;28;20213;-63
2023/04/30 02:42:23;;;;;;;8.60;2.17;;;4.50;99.90;;;;;;5039557;28;20725;-63
2023/04/30 02:44:50;;;;;;;3.70;1.90;;;4.50;99.90;;;;;;5053583;28;24430;-63
2023/04/30 02:47:17;;;;;;;3.50;2.23;;;4.50;99.90;;;;;;5049328;28;20520;-63
2023/04/30 02:49:44;;;;;;;6.37;2.37;;;4.50;99.90;;;;;;5027799;28;20884;-63
2023/04/30 02:52:12;;;;;;;3.70;2.20;;;4.50;99.90;;;;;;5054187;28;20397;-63
2023/04/30 02:54:38;;;;;;;3.27;2.03;;;4.30;99.90;;;;;;5047869;28;20202;-63
2023/04/30 02:57:05;;;;;;;6.10;1.80;;;4.20;99.90;;;;;;5046590;28;20736;-63
2023/04/30 02:59:32;;;;;;;11.33;2.37;;;4.20;99.90;;;;;;5056027;28;20196;-63
2023/04/30 03:01:59;;;;;;;5.80;1.83;;;4.40;99.90;;;;;;5041400;28;20203;-63
2023/04/30 03:04:26;;;;;;;4.67;2.00;;;4.50;99.90;;;;;;5025313;28;20829;-63
2023/04/30 03:06:53;;;;;;;10.20;2.83;;;4.40;99.90;;;;;;5054589;28;20479;-63
2023/04/30 03:09:21;;;;;;;6.67;2.30;;;4.40;99.90;;;;;;5037576;28;20232;-63
2023/04/30 03:11:48;;;;;;;3.57;2.40;;;4.30;99.90;;;;;;5058815;28;20599;-63
2023/04/30 03:14:14;;;;;;;6.40;3.00;;;4.20;99.90;;;;;;5044980;28;20875;-63
2023/04/30 03:16:41;;;;;;;7.40;2.20;;;4.30;99.90;;;;;;5045028;28;20208;-63
2023/04/30 03:19:08;;;;;;;7.73;2.87;;;4.30;99.90;;;;;;5018535;28;20615;-64
2023/04/30 03:21:35;;;;;;;5.03;2.57;;;4.30;99.90;;;;;;5059613;28;20202;-63
2023/04/30 03:24:02;;;;;;;5.10;2.50;;;4.30;99.90;;;;;;5045815;28;20207;-63
2023/04/30 03:26:31;;;;;;;2.23;2.00;;;4.20;99.90;;;;;;5046772;28;20201;-63
2023/04/30 03:28:59;;;;;;;2.67;2.07;;;4.10;99.90;;;;;;5041880;28;20440;-63
2023/04/30 03:31:26;;;;;;;7.00;2.43;;;4.10;99.90;;;;;;5041422;28;21032;-63
2023/04/30 03:33:53;;;;;;;9.97;2.47;;;4.10;99.90;;;;;;5045689;28;20204;-63
2023/04/30 03:36:19;;;;;;;3.87;2.17;;;4.10;99.90;;;;;;5036465;28;20307;-63
2023/04/30 03:38:46;;;;;;;2.30;1.80;;;4.00;99.90;;;;;;5057133;28;20287;-63
2023/04/30 03:41:13;;;;;;;7.40;2.77;;;4.10;99.90;;;;;;5042299;28;20799;-63
2023/04/30 03:43:41;;;;;;;6.57;2.83;;;4.10;99.90;;;;;;5060452;28;20242;-63
2023/04/30 03:46:08;;;;;;;7.80;2.83;;;3.90;99.90;;;;;;5042190;28;20865;-63
2023/04/30 03:48:35;;;;;;;8.27;2.83;;;3.90;99.90;;;;;;5046252;28;20688;-63
2023/04/30 03:51:01;;;;;;;9.23;3.27;;;3.90;99.90;;;;;;5011129;28;20234;-63
2023/04/30 03:53:28;;;;;;;5.47;2.77;;;4.00;99.90;;;;;;5051032;28;20200;-63
2023/04/30 03:55:56;;;;;;;5.37;2.40;;;3.90;99.90;;;;;;5057844;28;20943;-63
2023/04/30 03:58:23;;;;;;;6.47;2.40;;;3.90;99.90;;;;;;5055092;28;20292;-63
2023/04/30 04:00:52;;;;;;;4.13;2.50;;;3.90;99.90;;;;;;5039826;28;20767;-63
2023/04/30 04:03:19;;;;;;;4.57;2.23;;;4.00;99.90;;;;;;5009573;28;20251;-63
2023/04/30 04:05:46;;;;;;;4.53;2.73;;;3.90;99.90;;;;;;5013673;28;20212;-63
2023/04/30 04:08:12;;;;;;;4.30;2.40;;;3.80;99.90;;;;;;5030934;28;20401;-63
2023/04/30 04:10:39;;;;;;;4.23;2.80;;;3.80;99.90;;;;;;5031976;28;20767;-63
2023/04/30 04:13:06;;;;;;;4.90;2.87;;;3.90;99.90;;;;;;5038681;28;22922;-63
2023/04/30 04:15:33;;;;;;;5.47;2.80;;;3.90;99.90;;;;;;5034203;28;20231;-63
2023/04/30 04:18:02;;;;;;;9.97;3.13;;;4.00;99.90;;;;;;5035920;28;20234;-63
2023/04/30 04:20:28;;;;;;;7.80;2.90;;;4.10;99.90;;;;;;5052371;28;20219;-63
2023/04/30 04:22:55;;;;;;;9.07;2.97;;;4.00;99.90;;;;;;5014694;28;20217;-63
2023/04/30 04:25:23;;;;;;;9.63;3.13;;;4.00;99.90;;;;;;5027406;28;21239;-63
2023/04/30 04:27:50;;;;;;;11.17;3.27;;;4.00;99.90;;;;;;5048807;28;20200;-63
2023/04/30 04:30:17;;;;;;;5.47;3.20;;;4.00;99.90;;;;;;5057921;28;20955;-63
2023/04/30 04:32:48;;;;;;;8.87;3.90;;;4.00;99.90;;;;;;5052423;28;20578;-63
2023/04/30 04:35:17;;;;;;;8.17;2.87;;;4.00;99.90;;;;;;5050781;28;20677;-63
2023/04/30 04:37:44;;;;;;;9.07;3.17;;;4.10;99.90;;;;;;5021392;28;20214;-63
2023/04/30 04:40:12;;;;;;;12.67;3.77;;;4.10;99.90;;;;;;5043728;28;20339;-63
2023/04/30 04:42:39;;;;;;;5.47;3.03;;;4.10;99.90;;;;;;5064534;28;20193;-63
2023/04/30 04:45:08;;;;;;;7.20;2.93;;;4.10;99.90;;;;;;5041806;28;20740;-63
2023/04/30 04:47:35;;;;;;;3.57;2.80;;;4.00;99.90;;;;;;5052631;28;20616;-63
2023/04/30 04:50:02;;;;;;;4.93;2.40;;;4.00;99.90;;;;;;5047003;28;20231;-63
2023/04/30 04:52:30;;;;;;;4.70;2.63;;;4.10;99.90;;;;;;5026734;28;20550;-63
2023/04/30 04:54:57;;;;;;;2.97;2.10;;;4.20;99.90;;;;;;5032527;28;20216;-63
2023/04/30 04:57:24;;;;;;;4.30;2.20;;;4.20;99.90;;;;;;5057895;28;20208;-63
2023/04/30 04:59:51;;;;;;;2.57;2.30;;;4.20;99.90;;;;;;5024282;28;20204;-63
2023/04/30 05:02:18;;;;;;;4.70;2.27;;;4.20;99.90;;;;;;5041630;28;20341;-63
2023/04/30 05:04:46;;;;;;;4.00;2.87;;;4.10;99.90;;;;;;5049026;28;20235;-63
2023/04/30 05:07:12;;;;;;;5.17;2.53;;;4.10;99.90;;;;;;5020785;28;20306;-63
2023/04/30 05:09:41;;;;;;;5.47;2.50;;;4.20;99.90;;;;;;4993852;28;20224;-63
2023/04/30 05:12:07;;;;;;;8.60;3.33;;;4.20;99.90;;;;;;5051203;28;20188;-63
2023/04/30 05:14:36;;;;;;;3.97;3.00;;;4.30;99.90;;;;;;5013950;28;20506;-63
2023/04/30 05:17:02;;;;;;;6.07;2.50;;;4.30;99.90;;;;;;5052153;28;22948;-63
2023/04/30 05:19:29;;;;;;;5.07;3.13;;;4.40;99.90;;;;;;5027339;28;20332;-63
2023/04/30 05:21:56;;;;;;;6.00;2.77;;;4.40;99.90;;;;;;5061978;28;20199;-63
2023/04/30 05:24:23;;;;;;;7.70;2.93;;;4.50;99.90;;;;;;5010798;28;20207;-63
2023/04/30 05:26:51;;;;;;;6.10;3.10;;;4.60;99.90;;;;;;5055472;28;20196;-63
2023/04/30 05:29:18;;;;;;;5.47;3.17;;;4.60;99.90;;;;;;5031101;28;20848;-63
2023/04/30 05:31:44;;;;;;;2.93;2.30;;;4.70;99.90;;;;;;5043962;28;21017;-63
2023/04/30 05:34:11;;;;;;;3.13;2.67;;;4.70;99.90;;;;;;5047914;28;21163;-63
2023/04/30 05:36:38;;;;;;;3.60;2.23;;;4.90;99.90;;;;;;5035268;28;20205;-63
2023/04/30 05:39:05;;;;;;;4.63;2.57;;;4.90;99.90;;;;;;5055126;28;20213;-63
2023/04/30 05:41:31;;;;;;;6.40;2.63;;;4.90;99.90;;;;;;5009335;28;20240;-63
2023/04/30 05:44:01;;;;;;;5.30;3.37;;;4.90;99.90;;;;;;5045873;28;20209;-63
2023/04/30 05:46:28;;;;;;;8.43;3.37;;;5.10;99.90;;;;;;5050310;28;20235;-63
2023/04/30 05:48:55;;;;;;;5.20;3.47;;;5.30;99.90;;;;;;5045205;28;20208;-63
2023/04/30 05:51:22;;;;;;;6.80;3.33;;;5.30;99.90;;;;;;5043762;28;20305;-63
2023/04/30 05:53:48;;;;;;;9.53;3.80;;;5.30;99.90;;;;;;5059926;28;20199;-63
2023/04/30 05:56:15;;;;;;;3.97;3.17;;;5.40;99.90;;;;;;5009187;28;20226;-63
2023/04/30 05:58:42;;;;;;;10.33;4.30;;;5.50;99.90;;;;;;5040970;28;20301;-63
2023/04/30 06:01:11;;;;;;;6.80;3.73;;;5.60;99.90;;;;;;5028300;28;20223;-63
2023/04/30 06:03:38;;;;;;;11.13;4.17;;;5.70;99.90;;;;;;5042833;28;20740;-63
2023/04/30 06:06:05;;;;;;;7.03;4.17;;;5.70;99.90;;;;;;5037246;28;20916;-63
2023/04/30 06:08:32;;;;;;;17.93;4.43;;;5.80;99.90;;;;;;5029532;28;20597;-63
2023/04/30 06:10:59;;;;;;;6.00;3.70;;;5.90;99.90;;;;;;5020408;28;20219;-63
2023/04/30 06:13:26;;;;;;;5.97;3.80;;;6.00;99.90;;;;;;5051964;28;20306;-63
2023/04/30 06:15:53;;;;;;;7.83;3.93;;;6.00;99.90;;;;;;5041545;28;20846;-62
2023/04/30 06:18:21;;;;;;;6.20;3.67;;;6.10;99.90;;;;;;5051262;28;20235;-63
2023/04/30 06:20:48;;;;;;;7.20;4.40;;;6.20;99.90;;;;;;5052493;28;20688;-64
2023/04/30 06:23:14;;;;;;;7.47;3.67;;;6.20;99.90;;;;;;5050149;28;20199;-63
2023/04/30 06:25:41;;;;;;;8.47;4.30;;;6.30;99.90;;;;;;5056299;28;20199;-63
2023/04/30 06:28:08;;;;;;;9.53;3.93;;;6.40;99.90;;;;;;5031247;28;20229;-63
2023/04/30 06:30:37;;;;;;;11.17;3.70;;;6.50;99.90;;;;;;5057229;28;20344;-63
2023/04/30 06:33:04;;;;;;;10.70;3.63;;;6.60;99.90;;;;;;5065188;28;20205;-63
2023/04/30 06:35:32;;;;;;;8.03;3.57;;;6.70;99.90;;;;;;5053763;28;20269;-63
2023/04/30 06:37:59;;;;;;;9.13;3.30;;;6.80;99.90;;;;;;5043078;28;20303;-63
2023/04/30 06:40:26;;;;;;;8.20;3.33;;;6.90;99.90;;;;;;5067148;28;20332;-64
2023/04/30 06:42:53;;;;;;;4.03;2.70;;;6.90;99.90;;;;;;5027298;28;20232;-63
2023/04/30 06:45:20;;;;;;;5.47;3.17;;;7.00;99.90;;;;;;5057545;28;20231;-63
2023/04/30 06:47:47;;;;;;;7.23;3.40;;;7.10;99.90;;;;;;5061669;28;20196;-63
2023/04/30 06:50:14;;;;;;;10.23;2.70;;;7.10;99.90;;;;;;5058569;28;20316;-63
2023/04/30 06:52:43;;;;;;;7.83;3.00;;;7.10;99.90;;;;;;5034400;28;20664;-63
2023/04/30 06:55:10;;;;;;;7.83;2.70;;;7.20;99.90;;;;;;5057519;28;20199;-63
2023/04/30 06:57:37;;;;;;;4.20;2.97;;;7.30;99.90;;;;;;5022892;28;20411;-63
2023/04/30 07:00:04;;;;;;;6.43;2.87;;;7.30;99.90;;;;;;5052304;28;20465;-63
2023/04/30 07:02:31;;;;;;;6.47;2.10;;;7.30;99.90;;;;;;5037470;28;21022;-63
2023/04/30 07:04:58;;;;;;;6.57;2.10;;;7.40;99.90;;;;;;5053026;28;20699;-63
2023/04/30 07:07:25;;;;;;;8.07;2.17;;;7.40;99.90;;;;;;4990409;28;20260;-64
2023/04/30 07:09:53;;;;;;;7.73;2.30;;;7.50;99.90;;;;;;5028839;28;20307;-63
2023/04/30 07:12:21;;;;;;;5.47;2.23;;;7.50;99.90;;;;;;5012073;28;20223;-64
2023/04/30 07:14:48;;;;;;;3.33;1.70;;;7.60;99.90;;;;;;5046942;28;20922;-63
2023/04/30 07:17:14;;;;;;;6.70;2.60;;;7.70;99.90;;;;;;5048410;28;20220;-63
2023/04/30 07:19:41;;;;;;;7.20;2.17;;;7.70;99.90;;;;;;5037661;28;20203;-64
2023/04/30 07:22:08;;;;;;;8.97;2.10;;;7.70;99.90;;;;;;5033475;28;20208;-63
2023/04/30 07:24:35;;;;;;;6.97;2.03;;;7.70;99.90;;;;;;5011801;28;20207;-63
2023/04/30 07:27:06;;;;;;;8.00;2.57;;;7.80;99.90;;;;;;5038763;28;20208;-63
2023/04/30 07:29:33;;;;;;;6.70;2.73;;;7.90;99.90;;;;;;5018924;28;20228;-63
2023/04/30 07:31:59;;;;;;;8.97;2.30;;;7.90;99.90;;;;;;5055586;28;20247;-64
2023/04/30 07:34:26;;;;;;;10.67;2.80;;;8.00;99.90;;;;;;5053040;28;20459;-63
2023/04/30 07:36:53;;;;;;;9.03;3.03;;;8.00;99.90;;;;;;5038486;28;20361;-64
2023/04/30 07:39:20;;;;;;;7.17;2.07;;;8.20;99.90;;;;;;5036027;28;20211;-63
2023/04/30 07:41:47;;;;;;;6.57;2.13;;;8.20;99.90;;;;;;5027479;28;20204;-64
2023/04/30 07:44:15;;;;;;;4.03;2.23;;;8.30;99.90;;;;;;5029068;28;20220;-64
2023/04/30 07:46:42;;;;;;;5.57;2.50;;;8.30;99.90;;;;;;5054078;28;20196;-63
2023/04/30 07:49:09;;;;;;;5.00;2.10;;;8.30;99.90;;;;;;5061750;28;20196;-63
2023/04/30 07:51:36;;;;;;;7.93;2.73;;;8.40;99.90;;;;;;5055234;28;20600;-63
2023/04/30 07:54:03;;;;;;;7.27;2.47;;;8.40;99.90;;;;;;5038784;28;20810;-63
2023/04/30 07:56:29;;;;;;;10.87;2.30;;;8.40;99.90;;;;;;5051918;28;20236;-63
2023/04/30 07:58:56;;;;;;;7.67;2.47;;;8.50;99.90;;;;;;5057956;28;20507;-63
2023/04/30 08:01:24;;;;;;;4.50;2.53;;;8.40;99.90;;;;;;5008558;28;20215;-64
2023/04/30 08:03:51;;;;;;;8.23;2.17;;;8.50;99.90;;;;;;5048121;28;21847;-63
2023/04/30 08:06:19;;;;;;;5.23;2.03;;;8.40;99.90;;;;;;5058349;28;20688;-64
2023/04/30 08:08:46;;;;;;;3.87;1.93;;;8.50;99.90;;;;;;5031424;28;20317;-64
2023/04/30 08:11:14;;;;;;;5.47;1.80;;;8.50;99.90;;;;;;5063861;28;20232;-64
2023/04/30 08:13:41;;;;;;;3.33;2.00;;;8.50;99.90;;;;;;5047331;28;20320;-64
2023/04/30 08:16:08;;;;;;;4.30;2.22;;;8.40;99.90;;;;;;5025722;28;20696;-64
2023/04/30 08:18:37;;;;;;;9.60;2.07;;;8.40;99.90;;;;;;5058710;28;20502;-63
2023/04/30 08:21:05;;;;;;;4.57;2.27;;;8.30;99.90;;;;;;5045436;28;20354;-64
2023/04/30 08:23:32;;;;;;;6.80;2.27;;;8.30;99.90;;;;;;5038951;28;20941;-64
2023/04/30 08:25:59;;;;;;;7.33;2.13;;;8.40;99.90;;;;;;5034111;28;20227;-63
2023/04/30 08:28:26;;;;;;;5.40;1.97;;;8.40;99.90;;;;;;5049380;28;20235;-63
2023/04/30 08:30:52;;;;;;;6.63;2.50;;;8.50;99.90;;;;;;5058864;28;20220;-63
2023/04/30 08:33:19;;;;;;;7.00;2.47;;;8.50;99.90;;;;;;5028021;28;20224;-64
2023/04/30 08:35:47;;;;;;;5.73;2.30;;;8.50;99.90;;;;;;5064969;28;20192;-63
2023/04/30 08:38:14;;;;;;;2.93;1.97;;;8.50;99.90;;;;;;5064972;28;20192;-64
2023/04/30 08:40:41;;;;;;;2.77;1.90;;;8.50;99.90;;;;;;5045063;28;21092;-63
2023/04/30 08:43:10;;;;;;;7.70;2.50;;;8.60;99.90;;;;;;5069894;28;20209;-63
2023/04/30 08:45:37;;;;;;;4.85;2.28;;;8.60;99.90;;;;;;5046108;28;20942;-64
2023/04/30 08:48:05;;;;;;;7.37;2.53;;;8.80;99.90;;;;;;5035537;28;20252;-64
2023/04/30 08:50:33;;;;;;;7.97;2.30;;;8.90;99.90;;;;;;5063057;28;20543;-63
2023/04/30 08:53:02;;;;;;;4.20;2.17;;;9.10;99.90;;;;;;5066185;28;20730;-63
2023/04/30 08:55:30;;;;;;;5.67;2.63;;;9.10;99.90;;;;;;5034468;28;20579;-63
2023/04/30 08:57:57;;;;;;;12.23;2.10;;;9.10;99.90;;;;;;5066610;28;20204;-63
2023/04/30 09:00:25;;;;;;;5.53;2.60;;;9.10;99.90;;;;;;5045005;28;20208;-63
2023/04/30 09:02:52;;;;;;;7.13;2.53;;;9.10;99.90;;;;;;5066337;28;20633;-63
2023/04/30 09:05:19;;;;;;;5.50;2.58;;;9.20;99.90;;;;;;5031360;28;20251;-64
2023/04/30 09:07:46;;;;;;;6.72;2.92;;;9.30;99.90;;;;;;5064259;28;20739;-65
2023/04/30 09:10:19;;;;;;;4.23;2.20;;;9.30;99.90;;;;;;5052252;28;20265;-63
2023/04/30 09:12:58;;;;;;;8.13;2.45;;;9.30;99.90;;;;;;5048360;28;20503;-64
2023/04/30 09:15:25;;;;;;;7.88;2.50;;;9.30;99.90;;;;;;5052647;28;20216;-64
2023/04/30 09:18:08;;;;;;;4.63;2.50;;;9.40;99.90;;;;;;5051326;28;21053;-64
2023/04/30 09:20:35;;;;;;;5.55;2.40;;;9.50;99.90;;;;;;5024103;28;20223;-63
2023/04/30 09:23:07;;;;;;;8.88;2.60;;;9.50;99.90;;;;;;5064350;28;20196;-63
2023/04/30 09:25:42;;;;;;;5.28;2.13;;;9.40;99.90;;;;;;5049103;28;20292;-64
2023/04/30 09:28:10;;;;;;;5.57;2.70;;;9.40;99.90;;;;;;5052780;28;20513;-63
2023/04/30 09:30:37;;;;;;;4.43;2.63;;;9.50;99.90;;;;;;5052842;28;20688;-64
2023/04/30 09:33:04;;;;;;;4.72;2.30;;;9.60;99.90;;;;;;5033861;28;20231;-64
2023/04/30 09:35:33;;;;;;;2.83;2.17;;;9.70;99.90;;;;;;5013349;28;21103;-64
2023/04/30 09:38:01;;;;;;;6.57;2.20;;;9.60;99.90;;;;;;5029488;28;20367;-64
2023/04/30 09:40:39;;;;;;;3.30;1.90;;;9.80;99.90;;;;;;5019808;28;21030;-64
2023/04/30 09:43:07;;;;;;;5.90;2.35;;;9.90;99.90;;;;;;5012952;22;20223;-64
2023/04/30 09:45:41;;;;;;;6.25;2.30;;;10.00;99.90;;;;;;4989411;28;20227;-64
2023/04/30 09:48:10;;;;;;;3.45;1.90;;;10.00;99.90;;;;;;5011394;28;20707;-64
2023/04/30 09:50:40;;;;;;;2.90;1.98;;;10.10;99.90;;;;;;5008792;28;20335;-64
2023/04/30 09:53:08;;;;;;;6.32;2.70;;;10.10;99.90;;;;;;5012971;28;20224;-64
2023/04/30 09:55:36;;;;;;;6.00;2.30;;;10.20;99.90;;;;;;5022171;28;20204;-64
2023/04/30 09:58:07;;;;;;;6.22;2.33;;;10.10;99.90;;;;;;5045700;28;20212;-65
2023/04/30 10:00:34;;;;;;;7.35;2.38;;;10.10;99.90;;;;;;5005623;28;20220;-64
2023/04/30 10:03:07;;;;;;;4.85;2.42;;;10.20;99.90;;;;;;5011679;28;20225;-64
2023/04/30 10:05:37;;;;;;;4.18;2.33;;;10.30;99.90;;;;;;5009892;28;20323;-64
2023/04/30 10:08:08;;;;;;;7.07;2.20;;;10.30;99.90;;;;;;4996078;28;21078;-64
2023/04/30 10:10:36;;;;;;;2.83;1.83;;;10.30;99.90;;;;;;5019349;28;21348;-64
2023/04/30 10:13:07;;;;;;;7.80;2.35;;;10.40;99.90;;;;;;5045626;28;20242;-64
2023/04/30 10:15:39;;;;;;;3.78;2.25;;;10.30;99.90;;;;;;5025868;28;20720;-64
2023/04/30 10:18:12;;;;;;;5.60;2.03;;;10.40;99.90;;;;;;5023757;28;20276;-64
2023/04/30 10:20:39;;;;;;;5.63;2.30;;;10.50;99.90;;;;;;5027256;28;20224;-64
2023/04/30 10:23:07;;;;;;;4.47;2.05;;;10.40;99.90;;;;;;4997555;28;20204;-64
2023/04/30 10:25:34;;;;;;;5.82;2.47;;;10.50;99.90;;;;;;5017794;28;21036;-64
2023/04/30 10:28:01;;;;;;;5.25;2.38;;;10.50;99.90;;;;;;5044729;28;20196;-64
2023/04/30 10:30:30;;;;;;;8.93;2.00;;;10.50;99.90;;;;;;5034049;28;20247;-64
2023/04/30 10:33:10;;;;;;;7.80;2.45;;;10.50;99.90;;;;;;5028000;28;20323;-63
2023/04/30 10:35:46;;;;;;;6.38;2.10;;;10.60;99.90;;;;;;4994965;28;20250;-63
2023/04/30 10:38:20;;;;;;;6.38;2.22;;;10.60;99.90;;;;;;5011092;28;20226;-64
2023/04/30 10:40:47;;;;;;;6.07;2.67;;;10.60;99.90;;;;;;5021333;28;20228;-64
2023/04/30 10:43:17;;;;;;;3.55;2.10;;;10.70;99.90;;;;;;5029687;28;20237;-64
2023/04/30 10:45:44;;;;;;;5.70;2.63;;;10.80;99.90;;;;;;5038578;28;20208;-64
2023/04/30 10:48:15;;;;;;;2.97;2.47;;;10.80;99.90;;;;;;5012244;28;20207;-64
2023/04/30 10:50:43;;;;;;;4.00;2.20;;;10.80;99.90;;;;;;5019924;28;20940;-63
2023/04/30 10:53:14;;;;;;;3.17;1.80;;;10.80;99.90;;;;;;5030983;28;20238;-64
2023/04/30 10:55:48;;;;;;;5.28;2.17;;;10.80;99.90;;;;;;5000387;28;20600;-64
2023/04/30 10:58:27;;;;;;;6.05;2.17;;;10.80;99.90;;;;;;5032147;28;20199;-64
2023/04/30 11:01:02;;;;;;;3.90;2.00;;;10.90;99.90;;;;;;5036775;28;20212;-64
2023/04/30 11:03:31;;;;;;;7.32;2.10;;;10.90;99.90;;;;;;5031014;28;20208;-64
2023/04/30 11:06:02;;;;;;;5.85;2.47;;;10.90;99.90;;;;;;5021840;28;20211;-64
2023/04/30 11:08:33;;;;;;;3.75;2.15;;;11.10;99.90;;;;;;5054452;28;20192;-64
2023/04/30 11:11:02;;;;;;;6.85;2.63;;;11.10;99.90;;;;;;5013925;28;20255;-64
2023/04/30 11:13:29;;;;;;;8.18;2.53;;;11.00;99.90;;;;;;5025111;28;20224;-63
2023/04/30 11:16:03;;;;;;;6.60;2.42;;;11.00;99.90;;;;;;5030416;28;20211;-64
2023/04/30 11:18:31;;;;;;;9.38;3.47;;;11.10;99.90;;;;;;5028467;28;20244;-64
2023/04/30 11:20:58;;;;;;;9.52;2.40;;;11.10;99.90;;;;;;5048051;28;20207;-64
2023/04/30 11:23:26;;;;;;;4.55;2.30;;;11.10;99.90;;;;;;5033860;28;20201;-64
2023/04/30 11:25:55;;;;;;;7.70;2.45;;;11.20;99.90;;;;;;5018786;28;20704;-64
2023/04/30 11:28:24;;;;;;;6.35;2.70;;;11.20;99.90;;;;;;5027506;28;20224;-64
2023/04/30 11:30:55;;;;;;;4.93;2.53;;;11.20;99.90;;;;;;5047487;28;20731;-64
2023/04/30 11:33:23;;;;;;;8.15;2.67;;;11.20;99.90;;;;;;5023986;28;20231;-64
2023/04/30 11:35:52;;;;;;;7.20;2.30;;;11.20;99.90;;;;;;5044862;28;20197;-64
2023/04/30 11:38:20;;;;;;;3.58;2.15;;;11.20;99.90;;;;;;5037630;28;20196;-64
2023/04/30 11:40:48;;;;;;;6.07;2.50;;;11.30;99.90;;;;;;5042187;28;21294;-64
2023/04/30 11:43:25;;;;;;;5.00;2.70;;;11.20;99.90;;;;;;4999505;28;20228;-64
2023/04/30 11:46:04;;;;;;;5.47;2.22;;;11.30;99.90;;;;;;5043919;28;20206;-64
2023/04/30 11:48:32;;;;;;;4.63;2.60;;;11.20;99.90;;;;;;5015905;28;22501;-64
2023/04/30 11:51:02;;;;;;;5.00;2.10;;;11.30;99.90;;;;;;5047340;28;20231;-64
2023/04/30 11:53:29;;;;;;;4.38;2.20;;;11.30;99.90;;;;;;5035896;28;20224;-64
2023/04/30 11:55:57;;;;;;;3.90;2.40;;;11.30;99.90;;;;;;5032541;28;20204;-64
2023/04/30 11:58:23;;;;;;;5.82;2.10;;;11.40;99.90;;;;;;4980427;28;20727;-64
2023/04/30 12:00:52;;;;;;;5.40;2.10;;;11.30;99.90;;;;;;5024481;28;20220;-64
2023/04/30 12:03:19;;;;;;;6.20;2.40;;;11.30;99.90;;;;;;5015160;28;20228;-63
2023/04/30 12:05:47;;;;;;;7.38;2.47;;;11.40;99.90;;;;;;5035730;28;20209;-64
2023/04/30 12:08:15;;;;;;;3.58;2.10;;;11.40;99.90;;;;;;5039024;28;20721;-64
2023/04/30 12:10:42;;;;;;;6.30;2.33;;;11.40;99.90;;;;;;5017299;28;20247;-64
2023/04/30 12:13:13;;;;;;;3.45;1.70;;;11.50;99.90;;;;;;5011566;28;20231;-64
2023/04/30 12:15:40;;;;;;;3.58;2.00;;;11.60;99.90;;;;;;5026460;28;20259;-64
2023/04/30 12:18:12;;;;;;;4.18;2.40;;;11.70;99.90;;;;;;5019862;28;20228;-64
2023/04/30 12:20:40;;;;;;;3.75;2.10;;;11.70;99.90;;;;;;5028684;28;20399;-64
2023/04/30 12:23:08;;;;;;;6.15;2.65;;;11.70;99.90;;;;;;5044837;28;20227;-64
2023/04/30 12:25:42;;;;;;;7.38;2.85;;;11.70;99.90;;;;;;5027273;28;20228;-64
2023/04/30 12:28:10;;;;;;;8.55;2.90;;;11.70;99.90;;;;;;4997205;28;25538;-64
2023/04/30 12:30:38;;;;;;;5.45;2.25;;;11.90;99.90;;;;;;5033661;28;24899;-64
2023/04/30 12:33:04;;;;;;;5.05;2.92;;;11.90;99.90;;;;;;5037548;28;20231;-63
2023/04/30 12:35:31;;;;;;;4.10;2.35;;;11.90;99.90;;;;;;5014331;28;20214;-64
2023/04/30 12:38:05;;;;;;;5.97;2.65;;;12.00;99.90;;;;;;5037200;28;20200;-64
2023/04/30 12:40:33;;;;;;;5.18;2.25;;;11.80;99.90;;;;;;5024842;28;20199;-64
2023/04/30 12:43:03;;;;;;;4.70;2.58;;;11.80;99.90;;;;;;5001261;28;20235;-64
2023/04/30 12:45:44;;;;;;;6.43;2.17;;;11.90;99.90;;;;;;5001993;28;21031;-64
2023/04/30 12:48:11;;;;;;;5.85;2.45;;;12.00;99.90;;;;;;5028874;28;20651;-64
2023/04/30 12:50:38;;;;;;;7.40;2.92;;;12.10;99.90;;;;;;5042028;28;20231;-64
2023/04/30 12:53:06;;;;;;;5.57;2.65;;;12.20;99.90;;;;;;5059828;28;20547;-64
2023/04/30 12:55:34;;;;;;;3.58;2.17;;;12.30;99.90;;;;;;5054411;28;20196;-64
2023/04/30 12:58:07;;;;;;;6.55;2.60;;;12.20;99.90;;;;;;5015238;28;20686;-64